Terminal Aerodrome Forecast
Issued by NWS Knoxville/Tri Cities, TN

Home | Current Version | Previous Version | Text Only | Print | Product List | Glossary On
Versions: 1 2 3 4 5 6 7 8 9 10 11 12 13 14 15 16
000
FTUS44 KMRX 301836 AAA
TAFTYS
TAF AMD
KTYS 301836Z 3019/3118 VRB05KT P6SM VCTS SCT040CB SCT250
     FM310000 03004KT P6SM SCT250
     FM311500 05005KT P6SM FEW250=

USA.gov is the U.S. government's official web portal to all federal, state and local government web resources and services.